Time;durP1;ratioP1;P1;durP2;ratioP2;P2;SDS_P1;SDS_P2;PMS_P1;PMS_P2;Temp;Humidity;BMP_temperature;BMP_pressure;BME280_temperature;BME280_humidity;BME280_pressure;Samples;Min_cycle;Max_cycle;Signal;HPM_P1;HPM_P2
2022/06/10 00:01:58;;;;;;;10.18;1.42;;;17.30;99.90;;;;;;7341117;19;108929;-87
2022/06/10 00:04:26;;;;;;;7.18;1.58;;;17.30;99.90;;;;;;7340971;19;109947;-87
2022/06/10 00:06:53;;;;;;;9.50;1.35;;;17.30;99.90;;;;;;7341741;19;108483;-88
2022/06/10 00:09:20;;;;;;;8.68;1.48;;;17.30;99.90;;;;;;7342949;19;108197;-87
2022/06/10 00:11:47;;;;;;;7.55;1.80;;;17.30;99.90;;;;;;7341368;19;107096;-86
2022/06/10 00:14:14;;;;;;;6.85;1.02;;;17.30;99.90;;;;;;7340617;19;108612;-86
2022/06/10 00:16:41;;;;;;;10.68;1.30;;;17.30;99.90;;;;;;7347556;19;107840;-87
2022/06/10 00:19:08;;;;;;;7.95;1.50;;;17.30;99.90;;;;;;7355347;19;107628;-87
2022/06/10 00:21:35;;;;;;;8.25;1.30;;;17.20;99.90;;;;;;7349505;19;109686;-87
2022/06/10 00:24:02;;;;;;;6.32;1.60;;;17.30;99.90;;;;;;7348712;19;111185;-87
2022/06/10 00:26:30;;;;;;;6.30;1.38;;;17.30;99.90;;;;;;7349984;19;110654;-88
2022/06/10 00:29:01;;;;;;;6.60;1.23;;;17.30;99.90;;;;;;7349234;19;109324;-88
2022/06/10 00:31:28;;;;;;;7.40;1.30;;;17.30;99.90;;;;;;7350185;19;107691;-87
2022/06/10 00:33:55;;;;;;;8.15;1.58;;;17.30;99.90;;;;;;7347183;19;108457;-87
2022/06/10 00:36:22;;;;;;;7.80;1.73;;;17.30;99.90;;;;;;7347310;19;108592;-87
2022/06/10 00:38:50;;;;;;;9.43;1.73;;;17.30;99.90;;;;;;7347435;19;107202;-87
2022/06/10 00:41:18;;;;;;;8.38;1.50;;;17.30;99.90;;;;;;7354882;19;107932;-87
2022/06/10 00:43:46;;;;;;;6.57;1.73;;;17.30;99.90;;;;;;7346770;19;107305;-87
2022/06/10 00:46:24;;;;;;;9.77;1.48;;;17.30;99.90;;;;;;7348555;19;108216;-87
2022/06/10 00:49:07;;;;;;;9.82;1.58;;;17.30;99.90;;;;;;7347000;19;111882;-87
2022/06/10 00:51:38;;;;;;;9.77;1.58;;;17.30;99.90;;;;;;7349214;19;107928;-88
2022/06/10 00:54:38;;;;;;;6.95;1.20;;;17.20;99.90;;;;;;7345230;19;111088;-88
2022/06/10 00:57:21;;;;;;;10.75;1.60;;;17.30;99.90;;;;;;7344707;19;109072;-87
2022/06/10 01:00:04;;;;;;;8.45;1.40;;;17.30;99.90;;;;;;7347000;19;108350;-87
2022/06/10 01:02:34;;;;;;;7.22;1.40;;;17.20;99.90;;;;;;7351452;19;110124;-87
2022/06/10 01:05:06;;;;;;;7.47;1.20;;;17.30;99.90;;;;;;7347667;19;109289;-87
2022/06/10 01:07:36;;;;;;;8.05;1.38;;;17.30;99.90;;;;;;7346521;19;107534;-87
2022/06/10 01:10:07;;;;;;;6.95;1.60;;;17.20;99.90;;;;;;7346535;19;108439;-87
2022/06/10 01:13:00;;;;;;;10.63;1.40;;;17.30;99.90;;;;;;7348806;19;108469;-87
2022/06/10 01:15:43;;;;;;;8.15;1.27;;;17.30;99.90;;;;;;7346905;19;108762;-88
2022/06/10 01:18:20;;;;;;;9.02;1.10;;;17.30;99.90;;;;;;7343504;19;107921;-88
2022/06/10 01:21:21;;;;;;;8.68;1.85;;;17.30;99.90;;;;;;7347495;19;107319;-89
2022/06/10 01:24:25;;;;;;;11.88;1.80;;;17.30;99.90;;;;;;7347722;19;108101;-87
2022/06/10 01:30:56;;;;;;;5.00;1.48;;;17.30;99.90;;;;;;7348687;19;108550;-87
2022/06/10 01:33:43;;;;;;;10.10;1.42;;;17.30;99.90;;;;;;7346044;19;110746;-87
2022/06/10 01:36:13;;;;;;;10.38;1.55;;;17.30;99.90;;;;;;7347975;19;111280;-87
2022/06/10 01:38:46;;;;;;;9.75;1.60;;;17.30;99.90;;;;;;7345179;19;111937;-88
2022/06/10 01:41:20;;;;;;;7.00;1.40;;;17.30;99.90;;;;;;7344677;19;108250;-87
2022/06/10 01:44:20;;;;;;;5.03;1.35;;;17.30;99.90;;;;;;7348075;19;107611;-87
2022/06/10 01:46:55;;;;;;;11.00;1.80;;;17.30;99.90;;;;;;7347404;19;107143;-86
2022/06/10 01:49:28;;;;;;;8.18;1.50;;;17.30;99.90;;;;;;7344879;19;107950;-86
2022/06/10 01:51:59;;;;;;;5.55;1.13;;;17.30;99.90;;;;;;7351394;19;107542;-87
2022/06/10 01:54:48;;;;;;;5.72;1.60;;;17.30;99.90;;;;;;7344472;19;108853;-87
2022/06/10 01:57:31;;;;;;;9.02;1.50;;;17.40;99.90;;;;;;7344706;19;108153;-88
2022/06/10 02:00:08;;;;;;;9.15;1.30;;;17.30;99.90;;;;;;7346082;19;108183;-87
2022/06/10 02:02:39;;;;;;;10.30;1.20;;;17.30;99.90;;;;;;7346256;19;108196;-87
2022/06/10 02:05:16;;;;;;;7.00;1.73;;;17.30;99.90;;;;;;7344525;19;107808;-87
2022/06/10 02:07:49;;;;;;;13.18;1.73;;;17.30;99.90;;;;;;7345167;19;108366;-87
2022/06/10 02:10:31;;;;;;;8.05;1.50;;;17.30;99.90;;;;;;7343661;19;109075;-87
2022/06/10 02:13:06;;;;;;;6.70;1.80;;;17.30;99.90;;;;;;7346138;19;107691;-88
2022/06/10 02:15:45;;;;;;;10.60;1.77;;;17.30;99.90;;;;;;7349137;19;108545;-88
2022/06/10 02:18:30;;;;;;;6.47;1.42;;;17.30;99.90;;;;;;7342028;19;107396;-87
2022/06/10 02:21:02;;;;;;;9.25;1.50;;;17.30;99.90;;;;;;7345536;19;107991;-87
2022/06/10 02:23:35;;;;;;;8.68;1.40;;;17.30;99.90;;;;;;7342980;19;109248;-86
2022/06/10 02:26:03;;;;;;;8.07;1.23;;;17.30;99.90;;;;;;7345281;19;108540;-88
2022/06/10 02:28:42;;;;;;;7.50;1.45;;;17.30;99.90;;;;;;7342087;19;108038;-87
2022/06/10 02:31:18;;;;;;;8.30;1.40;;;17.30;99.90;;;;;;7344368;19;111342;-87
2022/06/10 02:33:48;;;;;;;10.90;1.27;;;17.30;99.90;;;;;;7345342;19;107420;-87
2022/06/10 02:36:28;;;;;;;8.55;1.70;;;17.30;99.90;;;;;;7343827;19;108701;-87
2022/06/10 02:39:26;;;;;;;10.95;1.70;;;17.40;99.90;;;;;;7347875;19;108249;-87
2022/06/10 02:42:12;;;;;;;6.75;1.30;;;17.40;99.90;;;;;;7343532;19;108484;-87
2022/06/10 02:45:23;;;;;;;12.27;1.52;;;17.30;99.90;;;;;;7344402;19;108074;-87
2022/06/10 02:47:54;;;;;;;7.53;1.35;;;17.40;99.90;;;;;;7341254;19;111098;-87
2022/06/10 02:50:21;;;;;;;9.40;1.42;;;17.30;99.90;;;;;;7342000;19;107621;-87
2022/06/10 02:52:48;;;;;;;10.85;1.58;;;17.40;99.90;;;;;;7342277;19;109176;-87
2022/06/10 02:55:19;;;;;;;11.57;1.95;;;17.40;99.90;;;;;;7340450;19;108062;-87
2022/06/10 03:01:12;;;;;;;7.50;1.55;;;17.40;99.90;;;;;;7342935;19;108963;-86
2022/06/10 03:03:51;;;;;;;12.93;1.95;;;17.40;99.90;;;;;;7345514;19;107311;-87
2022/06/10 03:06:32;;;;;;;8.93;1.63;;;17.40;99.90;;;;;;7343253;19;111488;-87
2022/06/10 03:09:05;;;;;;;9.45;1.63;;;17.40;99.90;;;;;;7344433;19;107883;-87
2022/06/10 03:12:25;;;;;;;8.27;1.52;;;17.40;99.90;;;;;;7342810;19;108210;-87
2022/06/10 03:15:27;;;;;;;9.52;1.58;;;17.40;99.90;;;;;;7340463;19;108166;-87
2022/06/10 03:18:01;;;;;;;11.85;1.92;;;17.40;99.90;;;;;;7341767;19;110302;-88
2022/06/10 03:20:55;;;;;;;8.70;2.08;;;17.40;99.90;;;;;;7343518;19;107852;-86
2022/06/10 03:23:27;;;;;;;7.13;1.90;;;17.40;99.90;;;;;;7342413;19;109280;-87
2022/06/10 03:26:04;;;;;;;13.13;2.22;;;17.40;99.90;;;;;;7345853;19;108369;-88
2022/06/10 03:28:43;;;;;;;;;;;17.40;99.90;;;;;;7341767;19;111794;-87
2022/06/10 03:31:16;;;;;;;10.38;2.28;;;17.40;99.90;;;;;;7344678;19;110550;-87
2022/06/10 03:33:55;;;;;;;9.55;2.42;;;17.30;99.90;;;;;;7341571;19;110881;-87
2022/06/10 03:36:25;;;;;;;8.20;2.13;;;17.40;99.90;;;;;;7342802;19;111335;-86
2022/06/10 03:38:53;;;;;;;13.82;2.08;;;17.40;99.90;;;;;;7340847;19;107329;-86
2022/06/10 03:41:30;;;;;;;8.02;2.30;;;17.40;99.90;;;;;;7340889;19;107758;-87
2022/06/10 03:43:59;;;;;;;9.95;2.20;;;17.50;99.90;;;;;;7341640;19;108198;-87
2022/06/10 03:46:30;;;;;;;11.80;2.08;;;17.40;99.90;;;;;;7341368;19;107168;-86
2022/06/10 03:49:01;;;;;;;10.38;2.22;;;17.40;99.90;;;;;;7345053;19;111617;-88
2022/06/10 03:51:28;;;;;;;8.80;2.53;;;17.40;99.90;;;;;;7338676;19;109851;-87
2022/06/10 03:53:56;;;;;;;10.77;2.22;;;17.40;99.90;;;;;;7341850;19;108192;-86
2022/06/10 03:56:24;;;;;;;13.07;2.70;;;17.40;99.90;;;;;;7342040;19;109294;-87
2022/06/10 03:58:52;;;;;;;11.25;2.00;;;17.40;99.90;;;;;;7341027;19;107454;-87
2022/06/10 04:01:20;;;;;;;7.18;2.13;;;17.40;99.90;;;;;;7341869;19;108973;-87
2022/06/10 04:03:47;;;;;;;9.32;1.83;;;17.40;99.90;;;;;;7340933;19;108921;-88
2022/06/10 04:06:16;;;;;;;14.00;2.28;;;17.40;99.90;;;;;;7339747;19;110035;-87
2022/06/10 04:09:03;;;;;;;11.35;2.00;;;17.40;99.90;;;;;;7340317;19;107542;-87
2022/06/10 04:11:32;;;;;;;6.75;1.60;;;17.30;99.90;;;;;;7346273;19;108236;-87
2022/06/10 04:13:59;;;;;;;8.90;1.95;;;17.30;99.90;;;;;;7340071;19;107512;-86
2022/06/10 04:16:28;;;;;;;10.18;1.92;;;17.30;99.90;;;;;;7340194;19;109357;-87
2022/06/10 04:18:56;;;;;;;8.63;2.03;;;17.30;99.90;;;;;;7338288;19;107982;-87
2022/06/10 04:21:23;;;;;;;6.40;1.63;;;17.30;99.90;;;;;;7340439;19;107874;-86
2022/06/10 04:23:50;;;;;;;6.22;1.67;;;17.40;99.90;;;;;;7342364;19;108932;-88
2022/06/10 04:26:17;;;;;;;9.52;1.63;;;17.40;99.90;;;;;;7339240;19;111125;-87
2022/06/10 04:28:45;;;;;;;6.50;1.70;;;17.40;99.90;;;;;;7341124;19;107586;-87
2022/06/10 04:31:12;;;;;;;7.63;1.40;;;17.40;99.90;;;;;;7339837;19;110205;-87
2022/06/10 04:33:39;;;;;;;10.68;1.67;;;17.40;99.90;;;;;;7346031;19;109902;-87
2022/06/10 04:36:07;;;;;;;6.95;1.70;;;17.40;99.90;;;;;;7339977;19;108537;-88
2022/06/10 04:38:34;;;;;;;7.45;1.73;;;17.40;99.90;;;;;;7340582;19;107784;-87
2022/06/10 04:41:01;;;;;;;7.35;1.55;;;17.40;99.90;;;;;;7339429;19;108115;-87
2022/06/10 04:43:28;;;;;;;7.18;1.33;;;17.40;99.90;;;;;;7341676;19;110484;-88
2022/06/10 04:45:57;;;;;;;6.43;1.60;;;17.40;99.90;;;;;;7338483;19;108201;-87
2022/06/10 04:48:24;;;;;;;10.20;1.77;;;17.40;99.90;;;;;;7339249;19;107614;-87
2022/06/10 04:50:51;;;;;;;10.27;1.85;;;17.30;99.90;;;;;;7338517;19;108032;-88
2022/06/10 04:53:19;;;;;;;10.52;1.60;;;17.40;99.90;;;;;;7340712;19;107275;-87
2022/06/10 04:55:46;;;;;;;8.57;1.70;;;17.50;99.90;;;;;;7343186;19;108327;-87
2022/06/10 04:58:13;;;;;;;6.10;1.70;;;17.50;99.90;;;;;;7339451;19;108208;-87
2022/06/10 05:00:45;;;;;;;9.35;1.42;;;17.50;99.90;;;;;;7340554;19;108143;-87
2022/06/10 05:03:12;;;;;;;6.85;1.50;;;17.50;99.90;;;;;;7343666;19;110147;-87
2022/06/10 05:05:40;;;;;;;9.43;1.67;;;17.50;99.90;;;;;;7347105;19;108105;-87
2022/06/10 05:08:10;;;;;;;12.35;1.75;;;17.50;99.90;;;;;;7346909;19;107303;-87
2022/06/10 05:10:38;;;;;;;10.45;2.10;;;17.50;99.90;;;;;;7347297;19;109219;-87
2022/06/10 05:13:05;;;;;;;8.88;1.50;;;17.60;99.90;;;;;;7346779;19;108506;-88
2022/06/10 05:15:32;;;;;;;11.38;1.88;;;17.60;99.90;;;;;;7350192;19;107721;-88
2022/06/10 05:18:00;;;;;;;11.60;1.63;;;17.60;99.90;;;;;;7343939;19;107805;-90
2022/06/10 05:20:32;;;;;;;10.40;1.92;;;17.60;99.90;;;;;;7348039;19;107632;-90
2022/06/10 05:22:59;;;;;;;9.18;1.88;;;17.60;99.90;;;;;;7346205;19;108753;-88
2022/06/10 05:25:26;;;;;;;13.75;1.88;;;17.70;99.90;;;;;;7347581;19;109906;-88
2022/06/10 05:27:53;;;;;;;8.18;1.60;;;17.70;99.90;;;;;;7346506;19;107261;-88
2022/06/10 05:30:23;;;;;;;9.13;1.65;;;17.70;99.90;;;;;;7345848;19;108793;-87
2022/06/10 05:32:51;;;;;;;12.57;1.70;;;17.70;99.90;;;;;;7345436;19;108020;-87
2022/06/10 05:35:18;;;;;;;6.65;1.90;;;17.70;99.90;;;;;;7346043;19;107502;-87
2022/06/10 05:37:48;;;;;;;6.47;1.50;;;17.70;99.90;;;;;;7350394;19;112052;-86
2022/06/10 05:40:32;;;;;;;6.72;1.60;;;17.80;99.90;;;;;;7343804;19;108283;-86
2022/06/10 05:43:00;;;;;;;7.55;1.63;;;17.80;99.90;;;;;;7346531;19;109001;-87
2022/06/10 05:45:27;;;;;;;9.27;1.48;;;17.80;99.90;;;;;;7343121;19;111608;-87
2022/06/10 05:47:59;;;;;;;11.25;1.67;;;17.90;99.90;;;;;;7346559;19;108298;-87
2022/06/10 05:50:39;;;;;;;8.93;1.20;;;17.90;99.90;;;;;;7343508;19;109207;-87
2022/06/10 05:53:10;;;;;;;9.75;1.55;;;17.90;99.90;;;;;;7346301;19;108117;-88
2022/06/10 05:55:39;;;;;;;7.68;1.20;;;18.00;99.90;;;;;;7344521;19;108132;-88
2022/06/10 05:58:08;;;;;;;8.30;1.52;;;18.00;99.90;;;;;;7345619;19;108994;-87
2022/06/10 06:00:36;;;;;;;8.43;1.48;;;18.00;99.90;;;;;;7348001;19;110612;-86
2022/06/10 06:03:04;;;;;;;7.18;1.60;;;18.00;99.90;;;;;;7342640;19;109349;-88
2022/06/10 06:05:33;;;;;;;8.55;1.90;;;18.10;99.90;;;;;;7344554;19;108577;-85
2022/06/10 06:08:00;;;;;;;14.20;1.98;;;18.10;99.90;;;;;;7342984;19;108440;-85
2022/06/10 06:10:28;;;;;;;10.82;1.92;;;18.10;99.90;;;;;;7344778;19;109412;-85
2022/06/10 06:12:56;;;;;;;4.80;1.40;;;18.10;99.90;;;;;;7344323;19;107192;-86
2022/06/10 06:15:24;;;;;;;7.00;1.65;;;18.10;99.90;;;;;;7345700;19;108660;-86
2022/06/10 06:17:52;;;;;;;6.93;1.60;;;18.10;99.90;;;;;;7345377;19;112063;-86
2022/06/10 06:20:21;;;;;;;9.75;1.40;;;18.20;99.90;;;;;;7343101;19;107941;-86
2022/06/10 06:22:48;;;;;;;9.40;1.50;;;18.20;99.90;;;;;;7350250;19;108253;-86
2022/06/10 06:25:18;;;;;;;9.32;1.30;;;18.20;99.90;;;;;;7342687;19;107276;-86
2022/06/10 06:27:46;;;;;;;10.65;1.45;;;18.20;99.90;;;;;;7344230;19;108432;-86
2022/06/10 06:30:18;;;;;;;7.97;1.35;;;18.30;99.90;;;;;;7343577;19;111411;-85
2022/06/10 06:32:45;;;;;;;5.13;1.35;;;18.30;99.90;;;;;;7344271;19;107669;-85
2022/06/10 06:35:12;;;;;;;9.43;1.30;;;18.40;99.90;;;;;;7342226;19;108152;-85
2022/06/10 06:37:39;;;;;;;11.23;1.90;;;18.40;99.90;;;;;;7341480;19;111079;-86
2022/06/10 06:40:09;;;;;;;7.90;1.30;;;18.40;99.90;;;;;;7342436;19;107282;-86
2022/06/10 06:42:36;;;;;;;10.05;1.55;;;18.50;99.90;;;;;;7340781;19;109415;-86
2022/06/10 06:45:07;;;;;;;8.95;1.67;;;18.50;99.90;;;;;;7349486;19;108895;-85
2022/06/10 06:47:54;;;;;;;10.68;1.58;;;18.60;99.90;;;;;;7343475;19;109682;-85
2022/06/10 06:50:26;;;;;;;10.57;1.40;;;18.60;99.90;;;;;;7342921;19;108897;-85
2022/06/10 06:52:53;;;;;;;13.27;1.55;;;18.70;99.90;;;;;;7344201;19;108585;-85
2022/06/10 06:55:32;;;;;;;6.65;1.27;;;18.70;99.90;;;;;;7341951;19;108548;-86
2022/06/10 06:57:59;;;;;;;10.55;1.52;;;18.80;99.90;;;;;;7342924;19;107895;-86
2022/06/10 07:00:27;;;;;;;10.55;1.35;;;18.80;99.90;;;;;;7340178;19;108306;-86
2022/06/10 07:02:55;;;;;;;9.13;1.30;;;18.90;99.90;;;;;;7345025;19;107954;-85
2022/06/10 07:05:22;;;;;;;10.13;1.30;;;18.90;99.90;;;;;;7341731;19;109279;-86
2022/06/10 07:07:49;;;;;;;4.80;1.08;;;19.00;99.90;;;;;;7346330;19;108447;-86
2022/06/10 07:10:18;;;;;;;9.27;1.13;;;19.00;99.90;;;;;;7341370;19;108903;-86
2022/06/10 07:12:45;;;;;;;6.90;1.58;;;19.00;99.90;;;;;;7343673;19;110544;-86
2022/06/10 07:15:12;;;;;;;6.47;1.23;;;19.10;99.90;;;;;;7343140;19;108514;-87
2022/06/10 07:17:40;;;;;;;5.85;1.30;;;19.20;99.90;;;;;;7341155;19;108582;-86
2022/06/10 07:20:08;;;;;;;10.43;1.55;;;19.20;99.90;;;;;;7342175;19;107284;-87
2022/06/10 07:22:36;;;;;;;7.65;1.20;;;19.30;99.90;;;;;;7341203;19;108512;-84
2022/06/10 07:25:03;;;;;;;9.60;1.30;;;19.40;99.90;;;;;;7340196;19;109222;-85
2022/06/10 07:27:30;;;;;;;7.97;1.13;;;19.40;99.90;;;;;;7345586;19;110529;-86
2022/06/10 07:30:07;;;;;;;8.93;1.42;;;19.50;99.90;;;;;;7341249;19;110025;-85
2022/06/10 07:32:34;;;;;;;9.15;1.73;;;19.60;99.90;;;;;;7343412;19;110008;-85
2022/06/10 07:35:02;;;;;;;7.72;1.20;;;19.60;99.90;;;;;;7339561;19;107652;-85
2022/06/10 07:37:29;;;;;;;9.18;1.50;;;19.70;99.90;;;;;;7341093;19;108919;-85
2022/06/10 07:39:57;;;;;;;9.32;1.30;;;19.80;99.90;;;;;;7340095;19;107595;-86
2022/06/10 07:42:24;;;;;;;7.53;1.20;;;19.90;99.90;;;;;;7334299;19;108259;-86
2022/06/10 07:44:52;;;;;;;7.22;1.33;;;19.90;99.90;;;;;;7332930;19;108963;-85
2022/06/10 07:47:19;;;;;;;7.60;1.60;;;20.00;99.90;;;;;;7336031;19;108353;-84
2022/06/10 07:49:46;;;;;;;7.22;1.40;;;20.20;99.90;;;;;;7338543;19;108028;-84
2022/06/10 07:52:14;;;;;;;7.60;1.48;;;20.30;99.90;;;;;;7335104;19;107972;-84
2022/06/10 07:54:41;;;;;;;17.35;1.63;;;20.40;99.90;;;;;;7334216;19;107673;-85
2022/06/10 07:57:11;;;;;;;5.30;1.25;;;20.50;99.90;;;;;;7336827;19;109419;-85
2022/06/10 07:59:42;;;;;;;10.07;1.88;;;20.60;99.90;;;;;;7340771;19;108053;-84
2022/06/10 08:02:09;;;;;;;6.60;1.35;;;20.70;99.90;;;;;;7339135;19;108832;-85
2022/06/10 08:04:36;;;;;;;6.78;1.40;;;20.80;99.90;;;;;;7340440;19;108379;-85
2022/06/10 08:07:04;;;;;;;8.27;1.83;;;20.80;99.90;;;;;;7339503;19;109648;-85
2022/06/10 08:09:37;;;;;;;12.82;1.98;;;20.90;99.90;;;;;;7340333;19;111825;-85
2022/06/10 08:12:05;;;;;;;6.07;1.48;;;21.00;99.90;;;;;;7346712;19;108796;-85
2022/06/10 08:14:32;;;;;;;6.35;1.58;;;21.00;99.90;;;;;;7340598;19;107105;-84
2022/06/10 08:17:03;;;;;;;13.23;2.10;;;21.10;99.90;;;;;;7340989;19;108896;-86
2022/06/10 08:19:32;;;;;;;9.77;1.63;;;21.20;99.90;;;;;;7339174;19;108252;-86
2022/06/10 08:24:45;;;;;;;9.65;1.80;;;21.40;99.90;;;;;;7341155;19;109321;-84
2022/06/10 08:27:13;;;;;;;9.35;1.60;;;21.60;99.90;;;;;;7341038;19;108101;-85
2022/06/10 08:29:40;;;;;;;6.25;1.63;;;21.70;99.90;;;;;;7340049;19;108727;-84
2022/06/10 08:32:07;;;;;;;14.35;2.22;;;21.90;99.90;;;;;;7340062;19;108673;-83
2022/06/10 08:34:35;;;;;;;9.35;1.80;;;22.00;99.90;;;;;;7343468;19;109466;-84
2022/06/10 08:37:03;;;;;;;15.13;1.90;;;22.10;99.90;;;;;;7343981;19;108793;-85
2022/06/10 08:39:30;;;;;;;13.48;1.95;;;22.10;99.90;;;;;;7342376;19;107288;-84
2022/06/10 08:42:03;;;;;;;10.35;1.63;;;22.10;99.90;;;;;;7347421;19;108246;-85
2022/06/10 08:44:40;;;;;;;11.73;2.13;;;22.10;99.90;;;;;;7346773;19;109254;-85
2022/06/10 08:47:35;;;;;;;11.70;1.80;;;22.00;99.90;;;;;;7346951;19;107721;-85
2022/06/10 08:50:20;;;;;;;7.30;1.80;;;22.00;99.90;;;;;;7344595;19;107939;-85
2022/06/10 08:53:08;;;;;;;12.63;2.80;;;22.10;99.90;;;;;;7346783;19;108898;-84
2022/06/10 08:55:54;;;;;;;10.85;1.88;;;22.10;99.90;;;;;;7346275;19;108025;-85
2022/06/10 08:58:29;;;;;;;8.85;2.05;;;22.30;99.90;;;;;;7351874;19;107516;-83
2022/06/10 09:01:01;;;;;;;8.35;1.92;;;22.40;99.90;;;;;;7345177;19;108240;-83
2022/06/10 09:03:46;;;;;;;10.52;2.40;;;22.40;99.90;;;;;;7344896;19;110282;-84
2022/06/10 09:06:19;;;;;;;8.73;2.08;;;22.60;99.90;;;;;;7346923;19;111443;-83
2022/06/10 09:08:50;;;;;;;8.23;2.00;;;22.60;99.90;;;;;;7347497;19;107892;-84
2022/06/10 09:11:51;;;;;;;8.57;1.80;;;22.60;99.90;;;;;;7347189;19;108335;-83
2022/06/10 09:14:24;;;;;;;11.43;1.98;;;22.70;99.90;;;;;;7347114;19;108956;-84
2022/06/10 09:16:59;;;;;;;9.05;2.13;;;22.70;99.90;;;;;;7345637;19;111197;-83
2022/06/10 09:19:51;;;;;;;9.52;2.10;;;22.70;99.90;;;;;;7347281;19;108039;-84
2022/06/10 09:22:32;;;;;;;14.68;2.60;;;22.80;99.90;;;;;;7351917;19;108105;-83
2022/06/10 09:25:05;;;;;;;7.22;2.10;;;22.90;99.90;;;;;;7345897;19;107413;-84
2022/06/10 09:27:36;;;;;;;6.90;1.80;;;22.90;99.90;;;;;;7345208;19;110037;-84
2022/06/10 09:30:07;;;;;;;14.82;1.92;;;23.00;99.90;;;;;;7346533;19;108657;-84
2022/06/10 09:32:52;;;;;;;8.85;2.13;;;23.00;99.90;;;;;;7344687;19;110698;-84
2022/06/10 09:35:21;;;;;;;;;;;23.20;99.90;;;;;;7344838;19;108888;-84
2022/06/10 09:38:36;;;;;;;9.00;1.70;;;23.30;99.90;;;;;;7348013;19;107552;-87
2022/06/10 09:41:29;;;;;;;11.38;2.08;;;23.40;99.90;;;;;;7341236;19;108524;-86
2022/06/10 09:44:24;;;;;;;10.40;1.70;;;23.50;99.90;;;;;;7347976;19;109192;-85
2022/06/10 09:47:17;;;;;;;15.55;2.50;;;23.70;99.90;;;;;;7342897;19;108542;-89
2022/06/10 09:50:26;;;;;;;8.57;2.05;;;23.70;99.90;;;;;;7341838;19;108996;-86
2022/06/10 09:53:11;;;;;;;13.52;2.05;;;23.70;99.90;;;;;;7341932;19;107311;-86
2022/06/10 09:56:09;;;;;;;12.20;2.00;;;23.90;99.90;;;;;;7340243;19;108635;-86
2022/06/10 09:59:02;;;;;;;10.60;1.90;;;24.00;99.90;;;;;;7341683;19;108968;-84
2022/06/10 10:01:51;;;;;;;7.53;1.85;;;24.10;99.90;;;;;;7337335;19;108041;-84
2022/06/10 10:04:45;;;;;;;15.25;2.20;;;24.10;99.90;;;;;;7340790;19;108559;-84
2022/06/10 10:07:17;;;;;;;5.85;1.48;;;24.20;99.90;;;;;;7334185;19;108884;-87
2022/06/10 10:10:14;;;;;;;10.18;1.55;;;24.30;99.90;;;;;;7338155;19;107569;-86
2022/06/10 10:12:59;;;;;;;13.85;1.90;;;24.40;99.90;;;;;;7332682;19;108554;-87
2022/06/10 10:15:42;;;;;;;6.82;1.52;;;24.40;99.90;;;;;;7332417;19;108198;-84
2022/06/10 10:18:37;;;;;;;8.38;1.50;;;24.50;99.90;;;;;;7334352;19;108739;-84
2022/06/10 10:21:14;;;;;;;13.15;2.28;;;24.60;99.90;;;;;;7337634;19;109044;-84
2022/06/10 10:23:59;;;;;;;13.38;1.92;;;24.60;99.90;;;;;;7344619;19;112108;-84
2022/06/10 10:26:33;;;;;;;10.02;1.60;;;24.80;99.50;;;;;;7344449;19;108711;-84
2022/06/10 10:29:11;;;;;;;9.93;1.90;;;24.80;99.60;;;;;;7345469;19;108720;-84
2022/06/10 10:32:04;;;;;;;8.65;1.60;;;24.70;99.20;;;;;;7344752;19;107490;-84
2022/06/10 10:34:36;;;;;;;6.28;1.65;;;24.60;99.80;;;;;;7348227;19;108643;-84
2022/06/10 10:37:22;;;;;;;9.00;1.80;;;24.70;99.90;;;;;;7344450;19;108354;-83
2022/06/10 10:39:53;;;;;;;9.60;1.75;;;25.00;99.90;;;;;;7343633;19;107795;-84
2022/06/10 10:42:27;;;;;;;8.52;1.83;;;25.10;99.90;;;;;;7339635;19;108796;-83
2022/06/10 10:45:27;;;;;;;9.00;1.63;;;25.20;99.90;;;;;;7343936;19;107119;-84
2022/06/10 10:47:57;;;;;;;6.15;1.65;;;25.40;99.70;;;;;;7342569;19;108587;-83
2022/06/10 10:50:34;;;;;;;8.15;1.73;;;25.40;99.70;;;;;;7339839;19;108194;-84
2022/06/10 10:53:24;;;;;;;9.65;1.98;;;25.60;99.90;;;;;;7344981;19;108392;-84
2022/06/10 10:55:56;;;;;;;4.97;1.42;;;25.60;99.30;;;;;;7341164;19;111421;-83
2022/06/10 10:58:34;;;;;;;7.55;1.63;;;25.50;99.30;;;;;;7348258;19;109007;-84
2022/06/10 11:01:43;;;;;;;6.70;2.08;;;25.40;99.30;;;;;;7341144;19;108506;-83
2022/06/10 11:03:57;;;;;;;6.85;1.73;;;25.40;98.80;;;;;;7344061;19;112169;-83
2022/06/10 11:06:29;;;;;;;10.77;2.20;;;25.40;99.10;;;;;;7344523;19;108844;-84
2022/06/10 11:09:20;;;;;;;9.35;1.90;;;25.50;99.00;;;;;;7342288;19;108060;-83
2022/06/10 11:11:48;;;;;;;7.47;1.88;;;25.40;99.20;;;;;;7341752;19;109333;-84
2022/06/10 11:14:26;;;;;;;7.80;1.85;;;25.40;99.20;;;;;;7341329;19;108166;-84
2022/06/10 11:17:12;;;;;;;8.98;1.92;;;25.40;99.00;;;;;;7342478;19;107962;-84
2022/06/10 11:20:13;;;;;;;7.15;1.90;;;25.40;98.60;;;;;;7343272;19;107886;-84
2022/06/10 11:22:43;;;;;;;11.80;1.85;;;25.40;99.00;;;;;;7343298;19;108956;-84
2022/06/10 11:25:17;;;;;;;10.05;1.92;;;25.50;98.60;;;;;;7343408;19;108232;-83
2022/06/10 11:27:50;;;;;;;9.85;1.88;;;25.50;99.00;;;;;;7340396;19;107862;-84
2022/06/10 11:30:21;;;;;;;6.25;1.33;;;25.60;98.30;;;;;;7340952;19;108982;-83
2022/06/10 11:32:48;;;;;;;5.00;1.45;;;25.60;98.30;;;;;;7340743;19;108025;-84
2022/06/10 11:35:32;;;;;;;9.85;2.00;;;25.70;98.40;;;;;;7343516;19;108976;-83
2022/06/10 11:38:23;;;;;;;9.55;2.35;;;25.70;98.40;;;;;;7342032;19;107816;-83
2022/06/10 11:40:56;;;;;;;7.28;2.08;;;25.70;97.90;;;;;;7341746;19;107864;-84
2022/06/10 11:43:37;;;;;;;7.43;2.17;;;25.70;98.40;;;;;;7342149;19;107383;-83
2022/06/10 11:46:16;;;;;;;7.80;2.25;;;25.70;98.20;;;;;;7347614;19;108423;-84
2022/06/10 11:48:50;;;;;;;13.60;2.83;;;25.70;98.20;;;;;;7342559;19;108100;-84
2022/06/10 11:51:43;;;;;;;9.63;2.88;;;25.90;98.40;;;;;;7338795;19;108938;-84
2022/06/10 11:54:13;;;;;;;14.00;2.80;;;26.10;97.60;;;;;;7340510;19;109055;-84
2022/06/10 12:00:27;;;;;;;10.38;2.75;;;26.30;96.90;;;;;;7342813;19;111636;-85
2022/06/10 12:03:20;;;;;;;12.50;2.85;;;26.30;97.00;;;;;;7338492;19;108187;-84
2022/06/10 12:06:05;;;;;;;8.68;3.08;;;26.20;97.00;;;;;;7342600;19;108191;-85
2022/06/10 12:08:49;;;;;;;9.15;2.75;;;26.20;97.10;;;;;;7347506;19;111338;-83
2022/06/10 12:11:32;;;;;;;7.85;2.83;;;26.10;96.70;;;;;;7344660;19;106947;-85
2022/06/10 12:14:21;;;;;;;7.85;2.78;;;26.10;96.70;;;;;;7348254;19;107740;-85
2022/06/10 12:17:15;;;;;;;8.85;2.92;;;26.20;97.50;;;;;;7348897;19;108909;-83
2022/06/10 12:19:50;;;;;;;11.48;2.70;;;26.40;96.10;;;;;;7346389;19;108599;-84
2022/06/10 12:22:17;;;;;;;11.07;2.83;;;26.40;96.10;;;;;;7347217;19;111820;-84
2022/06/10 12:24:48;;;;;;;8.25;2.55;;;26.50;96.80;;;;;;7349303;19;110173;-84
2022/06/10 12:27:23;;;;;;;7.15;2.17;;;26.70;95.80;;;;;;7348650;19;107170;-84
2022/06/10 12:30:10;;;;;;;10.73;2.53;;;26.70;96.10;;;;;;7349553;19;108368;-85
2022/06/10 12:32:52;;;;;;;6.43;2.30;;;26.80;96.50;;;;;;7350731;19;108217;-84
2022/06/10 12:35:31;;;;;;;7.07;2.13;;;27.10;96.90;;;;;;7346965;19;107892;-84
2022/06/10 12:38:03;;;;;;;9.18;2.63;;;27.30;95.90;;;;;;7348390;19;109207;-84
2022/06/10 12:40:56;;;;;;;9.80;2.20;;;27.50;95.90;;;;;;7348990;19;108328;-84
2022/06/10 12:43:42;;;;;;;5.53;2.38;;;27.70;95.80;;;;;;7349077;19;108177;-84
2022/06/10 12:46:28;;;;;;;9.07;2.50;;;27.80;94.60;;;;;;7348687;19;108933;-84
2022/06/10 12:48:55;;;;;;;9.52;3.00;;;27.80;94.70;;;;;;7349079;19;107702;-85
2022/06/10 12:51:36;;;;;;;7.25;2.28;;;27.60;94.50;;;;;;7343940;19;108804;-84
2022/06/10 12:54:26;;;;;;;6.65;2.00;;;27.30;94.30;;;;;;7347811;19;108699;-89
2022/06/10 12:57:39;;;;;;;8.90;2.15;;;27.10;94.10;;;;;;7350028;19;111575;-89
2022/06/10 13:00:19;;;;;;;6.65;2.00;;;26.90;94.30;;;;;;7344442;19;111719;-90
2022/06/10 13:02:55;;;;;;;9.75;2.03;;;26.80;94.90;;;;;;7342903;19;110122;-89
2022/06/10 13:05:22;;;;;;;;;;;26.80;95.00;;;;;;7345557;19;107961;-90
2022/06/10 13:07:50;;;;;;;8.88;2.30;;;26.70;94.90;;;;;;7347590;19;112152;-88
2022/06/10 13:10:33;;;;;;;6.45;2.20;;;26.70;95.10;;;;;;7343118;19;107321;-89
2022/06/10 13:13:13;;;;;;;7.80;1.80;;;26.70;95.00;;;;;;7342957;19;107974;-88
2022/06/10 13:15:47;;;;;;;7.30;2.20;;;26.70;94.80;;;;;;7342132;19;109414;-89
2022/06/10 13:18:17;;;;;;;4.75;1.70;;;26.70;95.40;;;;;;7343882;19;107507;-90
2022/06/10 13:20:48;;;;;;;6.43;1.85;;;26.80;95.50;;;;;;7349238;19;108577;-89
2022/06/10 13:23:26;;;;;;;6.35;1.30;;;26.90;95.80;;;;;;7339109;19;108391;-89
2022/06/10 13:26:06;;;;;;;5.60;1.20;;;27.00;95.30;;;;;;7343240;19;110083;-89
2022/06/10 13:28:41;;;;;;;5.75;1.30;;;27.10;95.20;;;;;;7344035;19;109170;-89
2022/06/10 13:31:16;;;;;;;4.93;1.52;;;27.20;95.70;;;;;;7343863;19;107600;-89